Flight Track Log - Related Links

Times and Time Zones

All times are in EDT time to prevent confusion due to time zone crossing. See the UAL582 flight status page for this flight to view local times or setup timezone preferences in your user account.

Time Position Orientation Groundspeed Altitude Reporting Facility
EDT Latitude Longitude Course Direction KTS MPH feet Rate Location/Type
Sun 17:03:50 43.6667 -79.6333 270° West 30 35 900  Level Toronto Center
Sun 17:04:50 43.6333 -79.7000 235° Southwest 190 219 3,000 2,700 Climbing Toronto Center
Sun 17:05:50 43.6333 -79.7667 270° West 200 230 6,300 2,000 Climbing Toronto Center
Sun 17:06:50 43.6667 -79.8667 295° West 250 288 7,000 650 Climbing Toronto Center
Sun 17:07:00 43.7117 -80.1065 277° West  Level FlightAware Approximate
Sun 17:07:50 43.6833 -79.9500 285° West 260 299 7,600  Level Toronto Center
Sun 17:08:00 43.7179 -80.2302 277° West  Level FlightAware Approximate
Sun 17:08:50 43.7000 -80.0500 283° West 270 311 11,000  Level Toronto Center
Sun 17:09:00 43.7291 -80.3534 277° West  Level FlightAware Approximate
Sun 17:09:50 43.7000 -80.1833 270° West 320 368 13,900  Level Toronto Center
Sun 17:10:00 43.7334 -80.4933 270° West  Level FlightAware Approximate
Sun 17:10:50 43.7167 -80.3000 281° West 350 403 17,100  Level Toronto Center
Sun 17:11:50 43.7333 -80.4667 278° West 360 414 19,800 2,550 Climbing Toronto Center
Sun 17:12:50 43.7333 -80.6000 270° West 370 426 22,200 2,350 Climbing Toronto Center
Sun 17:13:50 43.7000 -80.7333 251° West 390 449 24,500 2,050 Climbing Toronto Center
Sun 17:14:50 43.6500 -80.8833 245° Southwest 400 460 26,300 1,850 Climbing Toronto Center
Sun 17:15:50 43.6167 -81.0333 253° West 410 472 28,200 1,700 Climbing Toronto Center
Sun 17:16:50 43.5833 -81.2000 255° West 430 495 29,700 1,450 Climbing Toronto Center
Sun 17:17:50 43.5500 -81.3667 255° West 440 506 31,100 1,450 Climbing Toronto Center
Sun 17:18:50 43.5167 -81.5167 253° West 450 518 32,600 1,450 Climbing Toronto Center
Sun 17:19:50 43.4833 -81.7000 256° West 450 518 34,000 700 Climbing Toronto Center
Sun 17:20:50 43.4500 -81.8667 255° West 450 518 34,000  Level Toronto Center
Sun 17:21:50 43.4000 -82.0167 245° Southwest 460 529 34,000  Level Toronto Center
Sun 17:22:44 43.3850 -82.1628 262° West 461 531 34,000  Level Cleveland Center
Sun 17:23:44 43.3472 -82.3303 253° West 461 531 34,000  Level Cleveland Center
Sun 17:24:44 43.3072 -82.4917 251° West 461 531 34,000  Level Cleveland Center
Sun 17:25:44 43.2689 -82.6589 253° West 461 531 34,000  Level Cleveland Center
Sun 17:26:44 43.2261 -82.8225 250° West 461 531 34,000  Level Cleveland Center
Sun 17:27:45 43.1814 -82.9806 249° West 461 531 34,000  Level Cleveland Center
Sun 17:28:44 43.1361 -83.1467 250° West 461 531 34,000  Level Cleveland Center
Sun 17:29:44 43.0906 -83.3125 249° West 461 531 34,000  Level Cleveland Center
Sun 17:30:44 43.0431 -83.4750 248° West 461 531 34,000  Level Cleveland Center
Sun 17:31:44 42.9992 -83.6378 250° West 461 531 34,000  Level Cleveland Center
Sun 17:32:44 42.9611 -83.8089 253° West 461 531 34,000  Level Cleveland Center
Sun 17:33:44 42.9436 -83.9811 262° West 461 531 34,000  Level Cleveland Center
Sun 17:34:44 42.9261 -84.1533 262° West 466 536 34,000 -698 Level Cleveland Center
Sun 17:36:36 42.8961 -84.4625 263° West 460 529 32,000 -690 Descending Chicago Center
Sun 17:37:38 42.8786 -84.6350 262° West 461 531 32,000  Level Chicago Center
Sun 17:38:40 42.8569 -84.8403 262° West 457 526 32,000  Level Chicago Center
Sun 17:39:42 42.8392 -85.0142 262° West 462 532 32,000 -48 Level Chicago Center
Sun 17:40:44 42.8211 -85.1825 262° West 454 522 31,900 -1,065 Descending Chicago Center
Sun 17:41:46 42.8033 -85.3481 262° West 443 510 29,800 -2,081 Descending Chicago Center
Sun 17:42:48 42.7847 -85.5075 261° West 429 494 27,600 -2,032 Descending Chicago Center
Sun 17:43:50 42.7572 -85.6575 256° West 414 476 25,600 -2,032 Descending Chicago Center
Sun 17:44:52 42.7311 -85.8028 256° West 399 459 23,400 -2,323 Descending Chicago Center
Sun 17:45:54 42.7011 -85.9681 256° West 378 435 20,800 -1,659 Descending Chicago Center
Sun 17:46:55 42.6772 -86.1014 256° West 367 422 20,000 -390 Descending Chicago Center
Sun 17:47:57 42.6528 -86.2342 256° West 363 418 20,000 -242 Level Chicago Center
Sun 17:48:59 42.6275 -86.3633 255° West 357 411 19,500 -1,016 Descending Chicago Center
Sun 17:50:01 42.6039 -86.4925 256° West 353 406 17,900 -1,548 Descending Chicago Center
Sun 17:51:03 42.5797 -86.6203 256° West 350 403 16,300 -1,548 Descending Chicago Center
Sun 17:52:05 42.5564 -86.7481 256° West 348 400 14,700 -1,742 Descending Chicago Center
Sun 17:53:07 42.5172 -86.8892 249° West 338 389 12,700 -1,790 Descending Chicago Center
Sun 17:54:09 42.4861 -87.0036 250° West 327 376 11,000 -1,306 Descending Chicago Center
Sun 17:55:11 42.4544 -87.1136 249° West 315 362 10,000 -823 Descending Chicago Center
Sun 17:56:13 42.4261 -87.2167 250° West 297 342 9,300 -484 Descending Chicago Center
Sun 17:57:15 42.3992 -87.3111 249° West 274 315 9,000 -629 Descending Chicago Center
Sun 17:58:17 42.3675 -87.4100 247° West 268 308 8,000 -968 Descending Chicago Center
Sun 17:59:19 42.3347 -87.5136 247° West 271 312 7,000 -488 Descending Chicago Center
Sun 18:00:20 42.2850 -87.5744 222° Southwest 271 312 7,000 -341 Level Chicago Center
Sun 18:01:22 42.2167 -87.6539 221° Southwest 267 307 6,300 -677 Descending Chicago Center
Sun 18:02:24 42.1689 -87.7100 221° Southwest 233 268 5,600 -1,065 Descending Chicago Center
Sun 18:03:26 42.1222 -87.7619 220° Southwest 222 255 4,100 -1,532 Descending Chicago Center
Sun 18:03:58 42.1000 -87.8000 232° Southwest 217 250 3,200 -1,286 Descending Chicago TRACON
Sun 18:05:04 42.0500 -87.8333 206° Southwest 175 201 2,000 -1,091 Descending Chicago TRACON

Login

Don't have an account? Register now (free) for customized features, flight alerts, and more!